createdAt,value
2022-10-06T00:01:20.626Z,99.5
2022-10-06T00:06:02.929Z,99.5
2022-10-06T00:10:45.237Z,99.5
2022-10-06T00:15:27.449Z,99.5
2022-10-06T00:20:09.759Z,99.5
2022-10-06T00:24:52.090Z,99.5
2022-10-06T00:29:33.385Z,99.5
2022-10-06T00:34:14.696Z,99.5
2022-10-06T00:38:56.904Z,99.5
2022-10-06T00:43:39.226Z,99.5
2022-10-06T00:48:21.530Z,99.5
2022-10-06T00:53:03.745Z,99.5
2022-10-06T00:57:46.057Z,99.5
2022-10-06T01:02:28.366Z,99.5
2022-10-06T01:07:10.674Z,99.5
2022-10-06T01:11:52.887Z,99.5
2022-10-06T01:16:35.200Z,99.5
2022-10-06T01:21:17.510Z,99.5
2022-10-06T01:25:59.809Z,99.5
2022-10-06T01:30:42.038Z,99.5
2022-10-06T01:35:23.363Z,99.5
2022-10-06T01:40:05.560Z,99.5
2022-10-06T01:44:47.874Z,99.5
2022-10-06T01:49:30.184Z,99.5
2022-10-06T01:54:12.477Z,99.5
2022-10-06T01:58:54.706Z,99.5
2022-10-06T02:03:37.016Z,99.5
2022-10-06T02:08:18.337Z,99.5
2022-10-06T02:12:59.738Z,99.5
2022-10-06T02:17:40.944Z,99.5
2022-10-06T02:22:22.268Z,99.5
2022-10-06T02:27:04.470Z,99.5
2022-10-06T02:31:46.780Z,99.5
2022-10-06T02:36:29.092Z,99.5
2022-10-06T02:41:11.310Z,99.5
2022-10-06T02:45:53.620Z,99.5
2022-10-06T02:50:35.925Z,99.5
2022-10-06T02:55:18.137Z,99.5
2022-10-06T03:00:00.453Z,99.5
2022-10-06T03:04:42.763Z,99.5
2022-10-06T03:09:25.036Z,99.5
2022-10-06T03:14:07.287Z,99.5
2022-10-06T03:18:49.599Z,99.5
2022-10-06T03:23:30.912Z,99.5
2022-10-06T03:28:13.121Z,99.5
2022-10-06T03:32:55.434Z,99.5
2022-10-06T03:37:37.754Z,99.5
2022-10-06T03:42:19.978Z,99.5
2022-10-06T03:47:02.267Z,99.5
2022-10-06T03:51:44.581Z,99.5
2022-10-06T03:56:25.888Z,99.5
2022-10-06T04:01:07.205Z,99.5
2022-10-06T04:05:48.533Z,99.5
2022-10-06T04:10:29.869Z,99.5
2022-10-06T04:15:12.031Z,99.5
2022-10-06T04:19:54.344Z,99.5
2022-10-06T04:24:36.601Z,99.5
2022-10-06T04:29:18.874Z,99.5
2022-10-06T04:34:01.178Z,99.5
2022-10-06T04:38:43.491Z,99.5
2022-10-06T04:43:25.771Z,99.5
2022-10-06T04:48:08.018Z,99.5
2022-10-06T04:52:50.332Z,99.5
2022-10-06T04:57:32.610Z,99.5
2022-10-06T05:02:14.855Z,99.5
2022-10-06T05:06:57.330Z,99.5
2022-10-06T05:11:38.521Z,99.5
2022-10-06T05:16:20.689Z,99.5
2022-10-06T05:21:01.998Z,99.5
2022-10-06T05:25:44.309Z,99.5
2022-10-06T05:30:26.520Z,99.5
2022-10-06T05:35:08.831Z,99.5
2022-10-06T05:39:51.148Z,99.5
2022-10-06T05:44:32.469Z,99.5
2022-10-06T05:49:14.669Z,99.5
2022-10-06T05:53:56.979Z,99.5
2022-10-06T05:58:38.293Z,99.5
2022-10-06T06:03:20.605Z,99.5
2022-10-06T06:08:01.908Z,99.5
2022-10-06T06:12:44.125Z,99.5
2022-10-06T06:17:26.437Z,98
2022-10-06T06:22:08.746Z,97
2022-10-06T06:26:50.959Z,97.5
2022-10-06T06:31:33.280Z,97.5
2022-10-06T06:36:15.591Z,96.5
2022-10-06T06:40:57.795Z,96
2022-10-06T06:45:40.108Z,96
2022-10-06T06:50:22.423Z,92.5
2022-10-06T06:55:04.636Z,91
2022-10-06T06:59:46.944Z,90
2022-10-06T07:04:29.288Z,88.5
2022-10-06T07:09:10.567Z,88.5
2022-10-06T07:13:52.894Z,88
2022-10-06T07:18:35.102Z,87.5
2022-10-06T07:23:17.407Z,88
2022-10-06T07:27:59.725Z,89
2022-10-06T07:32:41.958Z,89
2022-10-06T07:37:23.275Z,89.5
2022-10-06T07:42:04.646Z,89.5
2022-10-06T07:46:46.761Z,88.5
2022-10-06T07:51:28.074Z,88
2022-10-06T07:56:09.383Z,88.5
2022-10-06T08:00:51.699Z,88.5
2022-10-06T08:05:34.034Z,87.5
2022-10-06T08:10:16.220Z,87
2022-10-06T08:14:58.539Z,87
2022-10-06T08:19:40.854Z,87.5
2022-10-06T08:24:23.053Z,88
2022-10-06T08:29:05.382Z,89.5
2022-10-06T08:33:47.682Z,89.5
2022-10-06T08:43:12.206Z,92.5
2022-10-06T08:47:54.521Z,92.5
2022-10-06T08:52:36.729Z,91.5
2022-10-06T08:57:18.047Z,91.5
2022-10-06T09:02:00.355Z,91
2022-10-06T09:06:42.568Z,91
2022-10-06T09:11:24.880Z,90.5
2022-10-06T09:16:07.193Z,88
2022-10-06T09:20:52.022Z,85
2022-10-06T09:25:36.427Z,85.5
2022-10-06T09:34:59.885Z,90
2022-10-06T09:44:17.963Z,90.5
2022-10-06T09:49:02.015Z,89.5
2022-10-06T09:53:41.483Z,87
2022-10-06T09:58:23.796Z,85
2022-10-06T10:03:06.067Z,84.5
2022-10-06T10:07:48.347Z,83.5
2022-10-06T10:12:30.634Z,81
2022-10-06T10:17:12.845Z,78
2022-10-06T10:21:55.157Z,77.5
2022-10-06T10:26:37.467Z,70
2022-10-06T10:31:19.683Z,63.5
2022-10-06T10:36:02.051Z,60
2022-10-06T10:40:44.317Z,54
2022-10-06T10:45:26.521Z,54.5
2022-10-06T10:50:07.830Z,47
2022-10-06T10:54:50.143Z,41.5
2022-10-06T10:59:32.441Z,42.5
2022-10-06T11:04:14.690Z,45.5
2022-10-06T11:08:56.978Z,45.5
2022-10-06T11:13:39.292Z,53
2022-10-06T11:18:21.501Z,50.5
2022-10-06T11:23:02.810Z,50.5
2022-10-06T11:27:44.121Z,50.5
2022-10-06T11:32:26.515Z,46.5
2022-10-06T11:37:08.650Z,50.5
2022-10-06T11:41:49.962Z,54
2022-10-06T11:46:31.270Z,54.5
2022-10-06T11:51:13.585Z,52
2022-10-06T11:55:55.926Z,46.5
2022-10-06T12:00:38.111Z,45.5
2022-10-06T12:05:20.414Z,54
2022-10-06T12:10:02.732Z,50.5
2022-10-06T12:14:44.941Z,54.5
2022-10-06T12:19:27.255Z,59
2022-10-06T12:24:09.566Z,59
2022-10-06T12:28:51.781Z,58.5
2022-10-06T12:33:34.095Z,50
2022-10-06T12:38:16.403Z,57.5
2022-10-06T12:42:58.642Z,60.5
2022-10-06T12:47:39.943Z,60
2022-10-06T12:52:22.241Z,58
2022-10-06T12:57:04.598Z,61.5
2022-10-06T13:01:46.762Z,61.5
2022-10-06T13:06:29.082Z,52.5
2022-10-06T13:11:11.391Z,46
2022-10-06T13:15:53.605Z,42
2022-10-06T13:20:34.915Z,41
2022-10-06T13:25:16.220Z,42
2022-10-06T13:29:58.537Z,38
2022-10-06T13:34:39.878Z,36.5
2022-10-06T13:39:21.160Z,40
2022-10-06T13:44:03.370Z,43.5
2022-10-06T13:48:45.685Z,38
2022-10-06T13:53:27.994Z,38
2022-10-06T13:58:10.221Z,40
2022-10-06T14:02:52.519Z,39
2022-10-06T14:12:17.044Z,40
2022-10-06T14:16:59.355Z,41
2022-10-06T14:21:41.671Z,39
2022-10-06T14:26:23.907Z,42.5
2022-10-06T14:31:06.195Z,48
2022-10-06T14:35:48.507Z,47
2022-10-06T14:40:29.819Z,49
2022-10-06T14:45:12.028Z,49
2022-10-06T14:49:54.346Z,49.5
2022-10-06T14:59:18.867Z,49.5
2022-10-06T15:04:00.176Z,49
2022-10-06T15:08:41.505Z,50.5
2022-10-06T15:13:23.800Z,51
2022-10-06T15:18:06.017Z,50.5
2022-10-06T15:22:48.336Z,51.5
2022-10-06T15:27:30.642Z,53
2022-10-06T15:32:12.854Z,52.5
2022-10-06T15:36:55.165Z,53.5
2022-10-06T15:41:37.471Z,54
2022-10-06T15:46:19.694Z,54.5
2022-10-06T15:51:02.009Z,55.5
2022-10-06T15:55:43.311Z,57
2022-10-06T16:00:24.600Z,58.5
2022-10-06T16:05:06.885Z,59.5
2022-10-06T16:09:49.198Z,61.5
2022-10-06T16:14:31.411Z,62.5
2022-10-06T16:19:13.758Z,63.5
2022-10-06T16:23:56.034Z,64.5
2022-10-06T16:28:38.246Z,66
2022-10-06T16:33:20.561Z,66.5
2022-10-06T16:38:02.879Z,67
2022-10-06T16:42:45.081Z,69
2022-10-06T16:47:27.390Z,70.5
2022-10-06T16:52:09.701Z,72
2022-10-06T16:56:51.915Z,73
2022-10-06T17:01:33.228Z,75.5
2022-10-06T17:06:15.539Z,77
2022-10-06T17:10:57.847Z,77.5
2022-10-06T17:15:40.060Z,80
2022-10-06T17:20:22.374Z,81
2022-10-06T17:25:04.693Z,82.5
2022-10-06T17:29:46.895Z,84
2022-10-06T17:34:28.204Z,85.5
2022-10-06T17:39:09.514Z,87
2022-10-06T17:43:50.842Z,88.5
2022-10-06T17:48:32.139Z,89
2022-10-06T17:53:14.454Z,90.5
2022-10-06T17:57:56.659Z,91
2022-10-06T18:02:38.971Z,91.5
2022-10-06T18:07:21.316Z,92
2022-10-06T18:12:03.504Z,92.5
2022-10-06T18:16:45.816Z,93
2022-10-06T18:21:28.119Z,94
2022-10-06T18:26:10.328Z,95
2022-10-06T18:30:52.642Z,95
2022-10-06T18:35:34.954Z,95.5
2022-10-06T18:40:17.161Z,96
2022-10-06T18:44:59.472Z,96
2022-10-06T18:49:40.786Z,96
2022-10-06T18:54:23.093Z,97
2022-10-06T18:59:05.394Z,97
2022-10-06T19:03:47.615Z,97
2022-10-06T19:08:29.925Z,97.5
2022-10-06T19:13:12.158Z,97
2022-10-06T19:17:54.455Z,97
2022-10-06T19:22:35.762Z,97
2022-10-06T19:27:17.075Z,97
2022-10-06T19:31:59.391Z,97
2022-10-06T19:36:40.693Z,97
2022-10-06T19:41:22.001Z,97.5
2022-10-06T19:46:04.217Z,97
2022-10-06T19:50:46.534Z,97
2022-10-06T19:55:28.834Z,97
2022-10-06T20:00:11.056Z,97.5
2022-10-06T20:04:53.362Z,97.5
2022-10-06T20:09:35.694Z,97.5
2022-10-06T20:14:17.876Z,98
2022-10-06T20:19:00.193Z,98.5
2022-10-06T20:23:42.503Z,98.5
2022-10-06T20:28:24.723Z,98.5
2022-10-06T20:33:07.031Z,98.5
2022-10-06T20:37:49.339Z,98
2022-10-06T20:42:30.648Z,99
2022-10-06T20:47:12.862Z,99
2022-10-06T20:51:55.165Z,99
2022-10-06T20:56:37.476Z,99.5
2022-10-06T21:01:19.700Z,99.5
2022-10-06T21:06:00.995Z,99.5
2022-10-06T21:10:43.310Z,99.5
2022-10-06T21:15:24.622Z,99.5
2022-10-06T21:20:05.930Z,99.5
2022-10-06T21:24:48.243Z,99.5
2022-10-06T21:29:29.552Z,99.5
2022-10-06T21:34:10.861Z,99.5
2022-10-06T21:38:53.069Z,99.5
2022-10-06T21:43:35.389Z,99.5
2022-10-06T21:48:17.721Z,99.5
2022-10-06T21:52:59.904Z,99.5
2022-10-06T21:57:42.231Z,99.5
2022-10-06T22:02:24.546Z,99.5
2022-10-06T22:07:06.738Z,99.5
2022-10-06T22:11:49.062Z,99.5
2022-10-06T22:16:31.364Z,99.5
2022-10-06T22:21:13.588Z,99.5
2022-10-06T22:25:55.887Z,99.5
2022-10-06T22:30:38.206Z,99.5
2022-10-06T22:35:19.512Z,99.5
2022-10-06T22:40:01.721Z,99.5
2022-10-06T22:44:44.045Z,99.5
2022-10-06T22:49:26.395Z,99.5
2022-10-06T22:54:08.559Z,99.5
2022-10-06T22:58:50.867Z,99.5
2022-10-06T23:03:33.183Z,99.5
2022-10-06T23:08:14.489Z,99.5
2022-10-06T23:12:55.799Z,99.5
2022-10-06T23:17:38.018Z,99.5
2022-10-06T23:22:20.325Z,99.5
2022-10-06T23:27:02.637Z,99.5
2022-10-06T23:31:44.848Z,99.5
2022-10-06T23:36:27.164Z,99.5
2022-10-06T23:41:09.470Z,99.5
2022-10-06T23:45:51.679Z,99.5
2022-10-06T23:50:33.992Z,99.5
2022-10-06T23:55:16.310Z,99.5
2022-10-06T23:59:58.516Z,99.5
